Time;durP1;ratioP1;P1;durP2;ratioP2;P2;SDS_P1;SDS_P2;PMS_P1;PMS_P2;Temp;Humidity;BMP_temperature;BMP_pressure;BME280_temperature;BME280_humidity;BME280_pressure;Samples;Min_cycle;Max_cycle;Signal;HPM_P1;HPM_P2
2023/09/06 00:01:05;;;;;;;4.55;4.00;;;;;;;18.60;100.00;101805.19;5068060;28;20081;-75
2023/09/06 00:03:30;;;;;;;6.40;4.00;;;;;;;18.61;100.00;101812.22;5072019;28;20032;-75
2023/09/06 00:05:58;;;;;;;5.03;3.92;;;;;;;18.60;100.00;101809.63;5068057;28;20078;-74
2023/09/06 00:08:24;;;;;;;5.28;3.05;;;;;;;18.60;100.00;101810.47;5068261;28;20028;-75
2023/09/06 00:10:50;;;;;;;5.85;3.55;;;;;;;18.61;100.00;101814.00;5069903;28;20029;-74
2023/09/06 00:13:17;;;;;;;6.05;3.20;;;;;;;18.56;100.00;101806.25;5064904;28;20033;-75
2023/09/06 00:15:42;;;;;;;7.72;3.22;;;;;;;18.56;100.00;101818.63;5071484;28;20479;-75
2023/09/06 00:18:08;;;;;;;5.95;3.30;;;;;;;18.48;100.00;101806.59;5064061;28;20064;-75
2023/09/06 00:20:38;;;;;;;4.18;3.40;;;;;;;18.46;100.00;101807.56;5070832;28;20024;-75
2023/09/06 00:23:06;;;;;;;8.15;3.45;;;;;;;18.45;100.00;101803.22;5070261;28;20119;-75
2023/09/06 00:25:32;;;;;;;5.40;3.80;;;;;;;18.40;100.00;101798.09;5070962;28;20048;-74
2023/09/06 00:28:03;;;;;;;5.50;3.10;;;;;;;18.40;100.00;101799.91;5070680;28;20021;-75
2023/09/06 00:30:29;;;;;;;6.28;3.80;;;;;;;18.35;100.00;101797.47;5069430;28;20028;-74
2023/09/06 00:32:55;;;;;;;3.75;3.42;;;;;;;18.32;100.00;101791.44;5071783;28;20035;-74
2023/09/06 00:35:23;;;;;;;5.28;3.38;;;;;;;18.29;100.00;101796.84;5067024;28;20056;-75
2023/09/06 00:37:49;;;;;;;6.25;3.88;;;;;;;18.24;100.00;101794.38;5071756;28;20078;-75
2023/09/06 00:40:19;;;;;;;5.60;5.00;;;;;;;18.19;100.00;101796.34;5067485;28;20032;-74
2023/09/06 00:42:50;;;;;;;7.22;6.28;;;;;;;18.18;100.00;101803.41;5070904;28;20460;-74
2023/09/06 00:45:17;;;;;;;12.20;8.15;;;;;;;18.13;100.00;101802.72;5067508;28;20464;-75
2023/09/06 00:47:42;;;;;;;13.15;8.55;;;;;;;18.10;100.00;101807.28;5055702;28;20809;-75
2023/09/06 00:50:11;;;;;;;10.95;8.80;;;;;;;18.09;100.00;101801.16;5067686;28;20067;-74
2023/09/06 00:52:37;;;;;;;12.00;9.10;;;;;;;18.05;100.00;101809.22;5070406;28;20066;-75
2023/09/06 00:55:03;;;;;;;11.30;9.52;;;;;;;17.94;100.00;101805.22;5067300;28;20028;-74
2023/09/06 00:57:30;;;;;;;11.18;9.98;;;;;;;17.93;100.00;101800.88;5070278;28;20033;-75
2023/09/06 00:59:59;;;;;;;10.65;8.20;;;;;;;17.90;100.00;101797.50;5067810;28;20048;-75
2023/09/06 01:02:28;;;;;;;9.85;8.43;;;;;;;17.88;100.00;101808.09;5069607;28;20024;-75
2023/09/06 01:04:53;;;;;;;9.50;7.20;;;;;;;17.84;100.00;101805.66;5054784;28;20032;-75
2023/09/06 01:07:20;;;;;;;9.52;5.95;;;;;;;17.87;100.00;101814.31;5066167;28;20025;-75
2023/09/06 01:09:46;;;;;;;6.57;5.43;;;;;;;17.86;100.00;101803.81;5067891;28;20028;-74
2023/09/06 01:12:12;;;;;;;7.75;5.32;;;;;;;17.87;100.00;101810.81;5068428;28;20439;-74
2023/09/06 01:14:40;;;;;;;4.78;3.80;;;;;;;17.84;100.00;101808.28;5072001;28;20112;-75
2023/09/06 01:17:06;;;;;;;5.97;3.97;;;;;;;17.79;100.00;101805.84;5074450;28;20031;-75
2023/09/06 01:19:34;;;;;;;4.45;3.80;;;;;;;17.82;100.00;101810.13;5071967;28;20039;-75
2023/09/06 01:22:20;;;;;;;6.05;3.85;;;;;;;17.82;100.00;101815.38;5074951;28;20070;-74
2023/09/06 01:24:45;;;;;;;5.43;3.90;;;;;;;17.81;100.00;101803.97;5070850;28;20020;-75
2023/09/06 01:27:13;;;;;;;8.02;4.38;;;;;;;17.73;100.00;101795.50;5074276;28;20063;-74
2023/09/06 01:29:39;;;;;;;5.57;4.45;;;;;;;17.75;100.00;101802.41;5070948;28;20021;-74
2023/09/06 01:32:05;;;;;;;8.10;4.40;;;;;;;17.71;100.00;101807.88;5074061;28;20071;-75
2023/09/06 01:34:31;;;;;;;7.30;4.47;;;;;;;17.64;100.00;101803.75;5071509;28;20112;-75
2023/09/06 01:36:57;;;;;;;8.02;4.30;;;;;;;17.66;100.00;101809.84;5073286;28;20131;-74
2023/09/06 01:39:22;;;;;;;7.30;4.72;;;;;;;17.62;100.00;101818.75;5071002;28;20028;-74
2023/09/06 01:41:48;;;;;;;7.28;4.50;;;;;;;17.53;100.00;101807.66;5074006;28;20079;-75
2023/09/06 01:44:14;;;;;;;6.00;4.63;;;;;;;17.54;100.00;101809.34;5070125;28;20066;-75
2023/09/06 01:46:40;;;;;;;7.30;5.00;;;;;;;17.48;100.00;101819.28;5073244;28;20028;-74
2023/09/06 01:49:05;;;;;;;5.65;4.25;;;;;;;17.51;100.00;101813.88;5070668;28;20036;-75
2023/09/06 01:51:31;;;;;;;5.70;4.28;;;;;;;17.49;100.00;101811.31;5065821;28;20491;-75
2023/09/06 01:53:56;;;;;;;6.97;4.65;;;;;;;17.47;100.00;101815.78;5070507;28;20380;-74
2023/09/06 01:56:22;;;;;;;9.38;5.18;;;;;;;17.44;100.00;101813.25;5072954;28;20036;-75
2023/09/06 01:58:47;;;;;;;6.68;4.05;;;;;;;17.41;100.00;101815.16;5070159;28;20025;-75
2023/09/06 02:01:13;;;;;;;4.93;4.40;;;;;;;17.45;100.00;101822.88;5072274;28;20425;-74
2023/09/06 02:03:38;;;;;;;6.97;4.20;;;;;;;17.39;100.00;101814.31;5072559;28;20575;-74
2023/09/06 02:06:04;;;;;;;6.18;4.35;;;;;;;17.34;100.00;101821.56;5065919;28;20055;-74
2023/09/06 02:08:30;;;;;;;4.97;4.40;;;;;;;17.29;100.00;101803.25;5070620;28;20031;-75
2023/09/06 02:10:56;;;;;;;6.68;4.22;;;;;;;17.31;100.00;101823.38;5074259;28;20101;-74
2023/09/06 02:13:21;;;;;;;8.55;4.57;;;;;;;17.32;100.00;101821.59;5070476;28;20064;-74
2023/09/06 02:15:47;;;;;;;6.35;4.82;;;;;;;17.27;100.00;101820.91;5073741;28;20459;-75
2023/09/06 02:18:15;;;;;;;8.68;5.50;;;;;;;17.17;100.00;101820.38;5071021;28;20523;-74
2023/09/06 02:20:41;;;;;;;8.48;5.70;;;;;;;17.13;100.00;101813.47;5072553;28;20479;-75
2023/09/06 02:23:07;;;;;;;10.23;5.18;;;;;;;17.09;100.00;101823.28;5070681;28;20028;-75
2023/09/06 02:25:33;;;;;;;9.55;5.13;;;;;;;17.03;100.00;101823.47;5072652;28;20430;-74
2023/09/06 02:28:04;;;;;;;8.15;5.43;;;;;;;17.05;100.00;101818.19;5072119;28;20468;-74
2023/09/06 02:30:29;;;;;;;10.00;5.20;;;;;;;17.01;100.00;101820.06;5071304;28;20028;-75
2023/09/06 02:32:55;;;;;;;6.88;4.55;;;;;;;16.98;100.00;101822.81;5073756;28;20075;-74
2023/09/06 02:35:21;;;;;;;7.10;4.97;;;;;;;16.97;100.00;101822.84;5067083;28;20111;-75
2023/09/06 02:37:46;;;;;;;7.55;4.90;;;;;;;16.95;100.00;101817.63;5059148;28;20108;-74
2023/09/06 02:40:13;;;;;;;5.60;4.90;;;;;;;16.96;100.00;101831.66;5063601;28;20017;-75
2023/09/06 02:42:40;;;;;;;9.75;6.00;;;;;;;16.88;100.00;101813.50;5064048;28;20498;-74
2023/09/06 02:45:09;;;;;;;8.25;5.47;;;;;;;16.91;100.00;101823.94;5059642;28;20079;-75
2023/09/06 02:47:37;;;;;;;7.28;5.32;;;;;;;16.91;100.00;101823.06;5053171;28;20102;-75
2023/09/06 02:50:05;;;;;;;7.97;5.28;;;;;;;16.85;100.00;101829.41;5061589;28;20490;-74
2023/09/06 02:52:35;;;;;;;5.97;5.35;;;;;;;16.81;100.00;101827.78;5069612;28;20035;-74
2023/09/06 02:55:04;;;;;;;7.47;5.18;;;;;;;16.75;100.00;101820.94;5061234;28;20104;-74
2023/09/06 02:57:31;;;;;;;8.27;5.38;;;;;;;16.76;100.00;101827.06;5062941;28;20036;-74
2023/09/06 02:59:57;;;;;;;6.07;5.28;;;;;;;16.75;100.00;101830.63;5066101;28;20443;-74
2023/09/06 03:02:22;;;;;;;7.85;5.38;;;;;;;16.74;100.00;101823.59;5060994;28;20117;-74
2023/09/06 03:04:54;;;;;;;8.05;4.85;;;;;;;16.74;100.00;101828.84;5066955;28;20024;-74
2023/09/06 03:07:20;;;;;;;6.63;4.65;;;;;;;16.70;100.00;101835.13;5057313;28;20059;-75
2023/09/06 03:09:45;;;;;;;7.97;5.03;;;;;;;16.67;100.00;101830.84;5066488;28;20032;-74
2023/09/06 03:12:14;;;;;;;7.07;4.93;;;;;;;16.57;100.00;101816.25;5061179;28;20443;-74
2023/09/06 03:14:44;;;;;;;6.40;5.25;;;;;;;16.61;100.00;101829.28;5067937;28;20375;-74
2023/09/06 03:17:10;;;;;;;7.20;5.25;;;;;;;16.63;100.00;101830.06;5060470;28;20028;-74
2023/09/06 03:19:40;;;;;;;5.28;4.78;;;;;;;16.58;100.00;101821.50;5066455;28;20559;-74
2023/09/06 03:22:09;;;;;;;8.32;5.30;;;;;;;16.53;100.00;101827.81;5061659;28;20045;-74
2023/09/06 03:24:43;;;;;;;6.25;4.68;;;;;;;16.52;100.00;101829.59;5065398;28;20025;-74
2023/09/06 03:27:15;;;;;;;6.03;5.32;;;;;;;16.51;100.00;101830.50;5061989;28;20032;-75
2023/09/06 03:29:40;;;;;;;6.13;4.45;;;;;;;16.45;100.00;101830.69;5065517;28;20059;-74
2023/09/06 03:32:09;;;;;;;5.35;4.80;;;;;;;16.35;100.00;101824.00;5062652;28;20060;-74
2023/09/06 03:34:35;;;;;;;8.13;5.10;;;;;;;16.43;100.00;101832.50;5058509;28;20020;-74
2023/09/06 03:37:10;;;;;;;10.15;5.00;;;;;;;16.43;100.00;101840.41;5063367;28;20086;-74
2023/09/06 03:39:41;;;;;;;7.00;5.32;;;;;;;16.39;100.00;101830.88;5063948;28;20021;-75
2023/09/06 03:42:10;;;;;;;6.00;4.75;;;;;;;16.36;100.00;101839.72;5064482;28;20165;-74
2023/09/06 03:44:36;;;;;;;7.93;4.70;;;;;;;16.26;100.00;101826.94;5058890;28;20021;-74
2023/09/06 03:47:13;;;;;;;6.00;4.97;;;;;;;16.25;100.00;101833.06;5065310;28;20020;-74
2023/09/06 03:49:40;;;;;;;7.25;4.80;;;;;;;16.23;100.00;101837.53;5057968;28;20429;-74
2023/09/06 03:52:06;;;;;;;13.40;4.90;;;;;;;16.17;100.00;101835.97;5064595;28;20020;-74
2023/09/06 03:54:35;;;;;;;7.97;5.75;;;;;;;16.12;100.00;101835.22;5061558;28;20029;-74
2023/09/06 03:57:01;;;;;;;7.65;5.13;;;;;;;16.09;100.00;101833.56;5063753;28;20085;-74
2023/09/06 03:59:27;;;;;;;8.20;5.07;;;;;;;16.12;100.00;101832.59;5062044;28;20430;-74
2023/09/06 04:01:54;;;;;;;6.63;5.18;;;;;;;16.12;100.00;101848.38;5062440;28;20062;-74
2023/09/06 04:04:22;;;;;;;8.00;5.43;;;;;;;16.11;100.00;101851.94;5063568;28;20017;-74
2023/09/06 04:06:47;;;;;;;6.43;5.68;;;;;;;16.02;100.00;101841.69;5060834;28;20039;-74
2023/09/06 04:09:13;;;;;;;6.10;5.18;;;;;;;16.01;100.00;101845.22;5064117;28;20058;-74
2023/09/06 04:11:41;;;;;;;8.75;5.93;;;;;;;15.97;100.00;101852.34;5060413;28;20035;-74
2023/09/06 04:14:07;;;;;;;5.90;5.30;;;;;;;16.01;100.00;101850.47;5064107;28;20036;-74
2023/09/06 04:16:35;;;;;;;6.15;5.55;;;;;;;15.96;100.00;101853.25;5062419;28;20043;-74
2023/09/06 04:19:01;;;;;;;6.70;5.32;;;;;;;15.97;100.00;101860.25;5062543;28;20055;-74
2023/09/06 04:21:26;;;;;;;11.35;5.40;;;;;;;15.91;100.00;101849.91;5063738;28;20472;-74
2023/09/06 04:23:51;;;;;;;6.43;5.43;;;;;;;15.91;100.00;101849.91;5061394;28;20053;-74
2023/09/06 04:26:17;;;;;;;6.90;5.18;;;;;;;15.85;100.00;101852.69;5062734;28;20092;-74
2023/09/06 04:28:42;;;;;;;9.50;5.10;;;;;;;15.87;100.00;101864.06;5063251;28;20017;-74
2023/09/06 04:31:08;;;;;;;11.10;5.90;;;;;;;15.78;100.00;101845.91;5062403;28;20032;-74
2023/09/06 04:33:33;;;;;;;6.38;5.20;;;;;;;15.79;100.00;101850.25;5064153;28;20104;-74
2023/09/06 04:36:01;;;;;;;8.73;5.40;;;;;;;15.81;100.00;101867.72;5060438;28;20029;-74
2023/09/06 04:38:27;;;;;;;6.35;5.50;;;;;;;15.73;100.00;101860.94;5067445;28;20464;-74
2023/09/06 04:40:52;;;;;;;7.65;5.20;;;;;;;15.74;100.00;101860.06;5059351;28;20043;-74
2023/09/06 04:43:18;;;;;;;9.02;5.80;;;;;;;15.77;100.00;101860.81;5067671;28;20078;-74
2023/09/06 04:45:44;;;;;;;8.13;5.57;;;;;;;15.77;100.00;101862.59;5056182;28;20071;-74
2023/09/06 04:48:11;;;;;;;11.18;5.85;;;;;;;15.74;100.00;101867.94;5064015;28;20049;-75
2023/09/06 04:50:38;;;;;;;10.25;5.50;;;;;;;15.70;100.00;101864.53;5067001;28;20047;-74
2023/09/06 04:53:05;;;;;;;8.95;5.60;;;;;;;15.67;100.00;101867.25;5066616;28;20021;-74
2023/09/06 04:55:35;;;;;;;10.93;5.38;;;;;;;15.68;100.00;101880.34;5064339;28;20040;-74
2023/09/06 04:58:02;;;;;;;9.35;5.30;;;;;;;15.67;100.00;101883.88;5067561;28;20029;-74
2023/09/06 05:00:36;;;;;;;7.85;5.18;;;;;;;15.63;100.00;101871.72;5064313;28;20029;-74
2023/09/06 05:03:03;;;;;;;9.48;6.18;;;;;;;15.66;100.00;101879.53;5068009;28;20025;-74
2023/09/06 05:05:29;;;;;;;11.63;6.20;;;;;;;15.66;100.00;101881.25;5063772;28;20040;-74
2023/09/06 05:07:54;;;;;;;9.90;6.00;;;;;;;15.67;100.00;101881.25;5069330;28;20109;-74
2023/09/06 05:10:19;;;;;;;10.30;6.28;;;;;;;15.66;100.00;101876.00;5064085;28;20181;-74
2023/09/06 05:12:45;;;;;;;10.23;6.30;;;;;;;15.71;100.00;101889.91;5069900;28;20025;-74
2023/09/06 05:15:12;;;;;;;8.38;6.38;;;;;;;15.72;100.00;101888.16;5063056;28;20033;-74
2023/09/06 05:17:39;;;;;;;8.65;6.38;;;;;;;15.68;100.00;101890.84;5069100;28;20533;-75
2023/09/06 05:20:25;;;;;;;10.13;6.53;;;;;;;15.74;100.00;101891.59;5063835;28;20033;-74
2023/09/06 05:22:50;;;;;;;10.10;6.28;;;;;;;15.80;100.00;101900.19;5062703;28;20458;-75
2023/09/06 05:25:15;;;;;;;11.00;6.88;;;;;;;15.79;100.00;101897.56;5063449;28;20028;-74
2023/09/06 05:27:41;;;;;;;10.73;6.40;;;;;;;15.84;100.00;101898.31;5068441;28;20039;-75
2023/09/06 05:30:07;;;;;;;14.57;6.82;;;;;;;15.85;100.00;101902.66;5064030;28;20040;-74
2023/09/06 05:32:32;;;;;;;12.88;7.00;;;;;;;15.87;100.00;101893.84;5067004;28;20033;-74
2023/09/06 05:34:57;;;;;;;10.75;6.07;;;;;;;15.94;100.00;101899.78;5066336;28;20024;-74
2023/09/06 05:37:24;;;;;;;11.70;6.97;;;;;;;15.97;100.00;101906.72;5064196;28;20379;-74
2023/09/06 05:39:50;;;;;;;9.68;7.05;;;;;;;16.03;100.00;101907.41;5066165;28;20025;-74
2023/09/06 05:42:16;;;;;;;12.07;7.07;;;;;;;16.01;100.00;101893.41;5065004;28;20073;-74
2023/09/06 05:44:41;;;;;;;12.75;7.00;;;;;;;16.12;100.00;101906.25;5060974;28;20021;-74
2023/09/06 05:47:06;;;;;;;11.82;6.97;;;;;;;16.12;100.00;101909.78;5068382;28;20017;-74
2023/09/06 05:49:32;;;;;;;14.63;8.05;;;;;;;16.10;100.00;101898.41;5062782;28;20412;-74
2023/09/06 05:51:57;;;;;;;10.98;7.72;;;;;;;16.18;100.00;101921.00;5065212;28;20116;-74
2023/09/06 05:54:22;;;;;;;11.75;7.53;;;;;;;16.23;100.00;101908.59;5065504;28;20036;-74
2023/09/06 05:56:47;;;;;;;17.30;7.75;;;;;;;16.28;100.00;101910.16;5064355;28;20115;-74
2023/09/06 05:59:14;;;;;;;13.52;7.63;;;;;;;16.35;100.00;101916.13;5064349;28;20029;-74
2023/09/06 06:01:40;;;;;;;22.83;8.43;;;;;;;16.38;100.00;101906.34;5063471;28;20025;-74
2023/09/06 06:04:09;;;;;;;12.90;7.53;;;;;;;16.33;100.00;101892.47;5065516;28;20035;-74
2023/09/06 06:06:35;;;;;;;12.57;7.43;;;;;;;16.50;100.00;101912.97;5063274;28;20037;-74
2023/09/06 06:09:00;;;;;;;15.52;7.82;;;;;;;16.60;100.00;101914.41;5065803;28;20065;-74
2023/09/06 06:11:26;;;;;;;15.52;8.13;;;;;;;16.67;100.00;101909.81;5064395;28;20037;-74
2023/09/06 06:13:51;;;;;;;10.75;7.53;;;;;;;16.77;100.00;101905.16;5064450;28;20147;-74
2023/09/06 06:16:18;;;;;;;9.13;7.93;;;;;;;16.82;100.00;101912.00;5065960;28;20133;-74
2023/09/06 06:18:44;;;;;;;12.90;7.32;;;;;;;16.90;100.00;101911.72;5062617;28;20025;-75
2023/09/06 06:21:11;;;;;;;14.45;7.00;;;;;;;16.97;100.00;101912.41;5065684;28;20025;-75
2023/09/06 06:23:36;;;;;;;10.18;7.22;;;;;;;17.01;100.00;101914.91;5064837;28;20384;-75
2023/09/06 06:26:01;;;;;;;13.10;7.28;;;;;;;17.12;100.00;101921.56;5063484;28;20032;-74
2023/09/06 06:28:27;;;;;;;11.02;7.72;;;;;;;17.19;100.00;101928.34;5067127;28;20029;-75
2023/09/06 06:30:52;;;;;;;12.52;7.75;;;;;;;17.29;100.00;101925.34;5062432;28;20032;-74
2023/09/06 06:33:17;;;;;;;16.63;8.02;;;;;;;17.31;100.00;101920.91;5068414;28;20103;-75
2023/09/06 06:35:43;;;;;;;13.55;7.85;;;;;;;17.45;100.00;101920.41;5061907;28;20029;-75
2023/09/06 06:38:08;;;;;;;12.20;8.00;;;;;;;17.49;100.00;101913.25;5069642;28;20039;-75
2023/09/06 06:40:36;;;;;;;10.57;7.60;;;;;;;17.63;100.00;101924.19;5061224;28;20024;-75
2023/09/06 06:43:02;;;;;;;13.50;7.60;;;;;;;17.70;100.00;101924.81;5069045;28;20397;-75
2023/09/06 06:45:28;;;;;;;13.00;8.15;;;;;;;17.83;100.00;101935.81;5056735;28;20032;-75
2023/09/06 06:47:53;;;;;;;11.30;7.35;;;;;;;17.91;100.00;101931.97;5064066;28;20396;-75
2023/09/06 06:50:20;;;;;;;10.18;7.10;;;;;;;18.04;100.00;101934.16;5062627;28;20040;-75
2023/09/06 06:52:46;;;;;;;9.40;6.78;;;;;;;18.10;100.00;101933.94;5066433;28;20100;-75
2023/09/06 06:55:11;;;;;;;9.73;7.15;;;;;;;18.23;100.00;101935.19;5061087;28;20507;-74
2023/09/06 06:57:37;;;;;;;9.63;6.55;;;;;;;18.29;100.00;101934.09;5067565;28;20102;-75
2023/09/06 07:00:05;;;;;;;11.77;6.40;;;;;;;18.41;100.00;101945.06;5061655;28;20025;-75
2023/09/06 07:02:31;;;;;;;13.18;7.28;;;;;;;18.39;100.00;101925.75;5066817;28;20071;-74
2023/09/06 07:04:57;;;;;;;10.20;6.32;;;;;;;18.55;100.00;101941.88;5061382;28;20029;-74
2023/09/06 07:07:23;;;;;;;8.15;6.28;;;;;;;18.63;100.00;101939.78;5066529;28;20036;-74
2023/09/06 07:09:49;;;;;;;7.60;6.35;;;;;;;18.65;100.00;101932.66;5061746;28;20039;-75
2023/09/06 07:12:14;;;;;;;8.80;6.35;;;;;;;18.84;100.00;101947.81;5065522;28;20372;-74
2023/09/06 07:14:39;;;;;;;6.65;5.45;;;;;;;18.86;100.00;101946.81;5063046;28;20511;-74
2023/09/06 07:17:05;;;;;;;8.43;5.65;;;;;;;18.97;100.00;101932.31;5063054;28;20069;-74
2023/09/06 07:19:30;;;;;;;11.23;5.60;;;;;;;19.03;100.00;101927.63;5064250;28;20082;-74
2023/09/06 07:21:55;;;;;;;9.13;4.88;;;;;;;19.20;100.00;101936.66;5061693;28;20025;-74
2023/09/06 07:24:21;;;;;;;7.75;5.25;;;;;;;19.27;100.00;101935.44;5064364;28;20032;-75
2023/09/06 07:26:46;;;;;;;10.35;5.05;;;;;;;19.30;100.00;101924.75;5062751;28;20484;-74
2023/09/06 07:29:11;;;;;;;8.50;5.35;;;;;;;19.45;100.00;101933.78;5063210;28;20033;-74
2023/09/06 07:31:39;;;;;;;8.80;5.38;;;;;;;19.48;100.00;101933.66;5063728;28;20016;-74
2023/09/06 07:34:04;;;;;;;7.75;5.70;;;;;;;19.60;100.00;101933.97;5063119;28;20025;-74
2023/09/06 07:36:30;;;;;;;7.88;4.90;;;;;;;19.72;100.00;101937.91;5063441;28;20024;-75
2023/09/06 07:38:56;;;;;;;10.25;5.35;;;;;;;19.78;100.00;101932.34;5063699;28;20052;-75
2023/09/06 07:41:22;;;;;;;6.80;5.25;;;;;;;19.92;100.00;101941.47;5063470;28;20028;-74
2023/09/06 07:43:47;;;;;;;6.78;4.88;;;;;;;20.00;100.00;101947.25;5064414;28;20029;-74
2023/09/06 07:46:13;;;;;;;7.55;4.82;;;;;;;20.10;100.00;101945.91;5059084;28;20112;-74
2023/09/06 07:48:38;;;;;;;14.20;4.70;;;;;;;20.19;100.00;101940.19;5063554;28;20037;-75
2023/09/06 07:51:04;;;;;;;5.55;4.38;;;;;;;20.26;100.00;101940.75;5062130;28;20099;-74
2023/09/06 07:53:30;;;;;;;8.77;4.60;;;;;;;20.38;100.00;101942.84;5062457;28;20029;-75
2023/09/06 07:55:56;;;;;;;8.10;4.15;;;;;;;20.47;100.00;101938.88;5063807;28;20090;-74
2023/09/06 07:58:23;;;;;;;6.90;4.40;;;;;;;20.55;100.00;101939.41;5061052;28;20025;-75
2023/09/06 08:00:51;;;;;;;11.95;5.00;;;;;;;20.68;100.00;101944.97;5063432;28;20372;-74
2023/09/06 08:03:16;;;;;;;10.93;5.00;;;;;;;20.78;100.00;101941.81;5062976;28;20456;-74
2023/09/06 08:05:42;;;;;;;11.00;5.07;;;;;;;20.90;100.00;101939.50;5061537;28;20116;-75
2023/09/06 08:08:10;;;;;;;5.63;4.57;;;;;;;21.00;100.00;101954.00;5064883;28;20075;-74
2023/09/06 08:10:42;;;;;;;8.70;5.10;;;;;;;21.12;100.00;101948.06;5059759;28;20443;-75
2023/09/06 08:13:07;;;;;;;8.98;4.65;;;;;;;21.22;100.00;101952.00;5065963;28;20032;-75
2023/09/06 08:15:35;;;;;;;8.88;4.80;;;;;;;21.35;100.00;101951.38;5060348;28;20357;-74
2023/09/06 08:18:03;;;;;;;9.30;4.78;;;;;;;21.43;100.00;101946.56;5066829;28;20029;-74
2023/09/06 08:20:28;;;;;;;5.30;4.53;;;;;;;21.50;100.00;101945.31;5060137;28;20432;-75
2023/09/06 08:22:54;;;;;;;8.10;4.40;;;;;;;21.61;100.00;101944.75;5066916;28;20056;-75
2023/09/06 08:25:19;;;;;;;8.60;4.70;;;;;;;21.68;100.00;101944.34;5059684;28;20091;-74
2023/09/06 08:27:45;;;;;;;8.63;4.90;;;;;;;21.74;100.00;101944.03;5066705;28;20482;-74
2023/09/06 08:30:13;;;;;;;8.40;4.65;;;;;;;21.91;100.00;101951.09;5060994;28;20032;-75
2023/09/06 08:32:39;;;;;;;9.70;4.43;;;;;;;21.98;100.00;101951.63;5064325;28;20028;-74
2023/09/06 08:35:09;;;;;;;9.27;5.10;;;;;;;22.07;100.00;101955.56;5060778;28;20024;-74
2023/09/06 08:37:35;;;;;;;5.65;4.10;;;;;;;22.20;100.00;101949.56;5042655;28;20028;-75
2023/09/06 08:40:07;;;;;;;6.80;4.20;;;;;;;22.23;100.00;101947.66;5062847;28;20029;-74
2023/09/06 08:42:34;;;;;;;5.83;4.93;;;;;;;22.36;100.00;101946.03;5061796;28;20376;-75
2023/09/06 08:45:05;;;;;;;8.75;4.60;;;;;;;22.47;100.00;101940.13;5056538;28;20028;-75
2023/09/06 08:47:31;;;;;;;8.15;4.50;;;;;;;22.54;100.00;101949.47;5065328;28;20057;-75
2023/09/06 08:49:57;;;;;;;7.63;4.30;;;;;;;22.65;100.00;101944.38;5060011;28;20082;-75
2023/09/06 08:52:24;;;;;;;8.88;4.10;;;;;;;22.78;99.89;101947.22;5066452;28;20029;-75
2023/09/06 08:54:50;;;;;;;7.70;3.97;;;;;;;22.88;100.00;101940.41;5059252;28;20021;-75
2023/09/06 08:57:17;;;;;;;7.25;3.60;;;;;;;23.04;100.00;101949.25;5066005;28;20495;-75
2023/09/06 08:59:43;;;;;;;4.53;3.80;;;;;;;23.17;96.83;101946.72;5059477;28;20443;-75
2023/09/06 09:02:14;;;;;;;3.95;3.45;;;;;;;23.29;96.30;101955.78;5063828;28;20032;-75
2023/09/06 09:04:41;;;;;;;5.70;3.70;;;;;;;23.35;96.48;101945.63;5060922;28;20108;-75
2023/09/06 09:07:08;;;;;;;5.57;3.58;;;;;;;23.47;98.77;101949.34;5063044;28;20029;-75
2023/09/06 09:09:33;;;;;;;8.85;4.25;;;;;;;23.54;97.30;101955.16;5062664;28;20049;-75
2023/09/06 09:11:59;;;;;;;6.35;3.80;;;;;;;23.67;97.16;101947.28;5062429;28;20060;-74
2023/09/06 09:14:25;;;;;;;4.80;3.63;;;;;;;23.78;96.33;101944.88;5062447;28;20074;-75
2023/09/06 09:16:59;;;;;;;3.80;3.40;;;;;;;23.86;97.51;101945.22;5061216;28;20126;-75
2023/09/06 09:19:25;;;;;;;5.25;3.30;;;;;;;23.92;94.00;101944.84;5063299;28;20029;-75
2023/09/06 09:21:51;;;;;;;5.78;3.35;;;;;;;24.02;92.56;101939.81;5060335;28;20538;-75
2023/09/06 09:24:28;;;;;;;6.40;3.47;;;;;;;24.10;94.12;101950.84;5063174;28;20055;-75
2023/09/06 09:26:56;;;;;;;5.18;3.40;;;;;;;24.24;92.55;101948.16;5061351;28;20035;-75
2023/09/06 09:29:25;;;;;;;4.32;3.38;;;;;;;24.32;94.96;101946.81;5062122;28;20391;-75
2023/09/06 09:31:50;;;;;;;4.28;3.40;;;;;;;24.43;92.32;101947.03;5061891;28;20111;-75
2023/09/06 09:34:18;;;;;;;4.50;3.50;;;;;;;24.55;91.96;101942.69;5066318;28;20414;-75
2023/09/06 09:36:53;;;;;;;7.47;3.88;;;;;;;24.62;92.89;101947.50;5065380;28;20025;-75
2023/09/06 09:39:24;;;;;;;5.28;3.42;;;;;;;24.67;88.90;101933.91;5065287;28;20092;-75
2023/09/06 09:41:50;;;;;;;4.32;3.38;;;;;;;24.77;86.97;101935.00;5066520;28;20033;-75
2023/09/06 09:44:16;;;;;;;3.60;2.80;;;;;;;24.82;87.72;101935.56;5063651;28;20028;-75
2023/09/06 09:46:45;;;;;;;4.78;3.33;;;;;;;24.95;86.77;101932.91;5065607;28;20486;-75
2023/09/06 09:49:12;;;;;;;6.75;3.40;;;;;;;24.99;84.86;101937.09;5065317;28;20044;-75
2023/09/06 09:51:39;;;;;;;6.50;3.50;;;;;;;25.03;83.04;101925.25;5064036;28;20032;-74
2023/09/06 09:54:06;;;;;;;3.65;2.95;;;;;;;25.12;83.12;101931.81;5066354;28;20028;-75
2023/09/06 09:56:37;;;;;;;6.03;3.20;;;;;;;25.17;80.78;101933.19;5062962;28;20032;-75
2023/09/06 09:59:04;;;;;;;7.47;3.50;;;;;;;25.19;81.81;101938.44;5066398;28;20059;-74
2023/09/06 10:01:33;;;;;;;3.83;3.35;;;;;;;25.30;81.25;101933.22;5064053;28;20036;-75
2023/09/06 10:04:03;;;;;;;5.45;3.35;;;;;;;25.40;81.48;101931.63;5065383;28;20050;-74
2023/09/06 10:06:31;;;;;;;4.10;3.40;;;;;;;25.43;77.63;101931.41;5064238;28;20024;-74
2023/09/06 10:08:59;;;;;;;5.30;3.78;;;;;;;25.48;82.13;101930.28;5066138;28;20060;-74
2023/09/06 10:11:25;;;;;;;3.85;3.42;;;;;;;25.55;79.88;101931.53;5064738;28;20094;-75
2023/09/06 10:13:52;;;;;;;6.25;3.45;;;;;;;25.66;78.38;101934.31;5062224;28;20021;-75
2023/09/06 10:16:19;;;;;;;4.78;3.45;;;;;;;25.66;81.60;101913.78;5061404;28;20036;-75
2023/09/06 10:18:44;;;;;;;7.47;3.58;;;;;;;25.74;79.61;101928.44;5063364;28;20029;-75
2023/09/06 10:21:11;;;;;;;3.95;3.53;;;;;;;25.72;80.65;101917.00;5065649;28;20438;-75
2023/09/06 10:23:43;;;;;;;6.55;3.75;;;;;;;25.86;81.06;101920.44;5064916;28;20369;-74
2023/09/06 10:26:09;;;;;;;7.40;3.50;;;;;;;26.01;80.79;101914.97;5049646;28;20035;-74
2023/09/06 10:28:35;;;;;;;5.10;3.67;;;;;;;26.18;80.44;101925.28;5065940;28;20028;-75
2023/09/06 10:31:07;;;;;;;8.75;3.67;;;;;;;26.27;79.02;101919.28;5063919;28;20108;-75
2023/09/06 10:33:42;;;;;;;6.05;3.90;;;;;;;26.39;78.29;101923.75;5066674;28;20017;-74
2023/09/06 10:36:14;;;;;;;4.78;3.78;;;;;;;26.47;75.48;101919.63;5063805;28;20048;-75
2023/09/06 10:38:52;;;;;;;;;;;;;;;26.50;80.76;101930.16;5066413;28;20029;-74
2023/09/06 10:41:21;;;;;;;4.05;3.60;;;;;;;26.56;77.64;101919.84;5064490;28;19916;-75
2023/09/06 10:44:00;;;;;;;5.13;3.42;;;;;;;26.60;76.79;101921.31;5066176;28;20079;-75
2023/09/06 10:46:31;;;;;;;7.13;3.70;;;;;;;26.68;71.99;101920.72;5062233;28;20040;-74
2023/09/06 10:49:16;;;;;;;8.23;3.90;;;;;;;26.78;73.67;101920.91;5064838;28;20047;-75
2023/09/06 10:51:57;;;;;;;6.93;3.72;;;;;;;26.83;73.72;101908.03;5058097;28;20032;-74
2023/09/06 10:54:37;;;;;;;7.55;3.70;;;;;;;26.97;74.91;101912.34;5063380;28;20059;-74
2023/09/06 10:57:11;;;;;;;4.05;3.60;;;;;;;27.03;70.95;101912.72;5066692;28;20033;-75
2023/09/06 10:59:43;;;;;;;5.57;3.50;;;;;;;27.04;67.45;101908.22;5061348;28;20483;-75
2023/09/06 11:02:18;;;;;;;4.88;3.63;;;;;;;27.11;67.28;101911.28;5067011;28;20066;-75
2023/09/06 11:04:44;;;;;;;4.40;3.50;;;;;;;27.14;65.01;101909.28;5061692;28;20083;-75
2023/09/06 11:07:10;;;;;;;6.22;3.72;;;;;;;27.22;69.04;101906.84;5065352;28;20484;-75
2023/09/06 11:09:49;;;;;;;3.70;3.40;;;;;;;27.39;69.78;101907.38;5063192;28;20052;-75
2023/09/06 11:12:14;;;;;;;5.93;3.67;;;;;;;27.43;66.58;101908.81;5060629;28;20039;-75
2023/09/06 11:14:41;;;;;;;6.10;4.03;;;;;;;27.59;64.37;101909.31;5063016;28;20028;-74
2023/09/06 11:17:07;;;;;;;6.85;3.75;;;;;;;27.72;61.39;101902.03;5064243;28;20048;-75